sensor_id;sensor_type;location;lat;lon;timestamp;P1;durP1;ratioP1;P2;durP2;ratioP2
11572;SDS011;5842;52.426;4.886;2022-10-31T00:00:26;20.53;;;18.40;;
11572;SDS011;5842;52.426;4.886;2022-10-31T00:02:53;25.67;;;21.37;;
11572;SDS011;5842;52.426;4.886;2022-10-31T00:05:20;21.17;;;18.33;;
11572;SDS011;5842;52.426;4.886;2022-10-31T00:07:47;22.57;;;19.93;;
11572;SDS011;5842;52.426;4.886;2022-10-31T00:10:18;27.83;;;25.13;;
11572;SDS011;5842;52.426;4.886;2022-10-31T00:12:45;31.73;;;28.40;;
11572;SDS011;5842;52.426;4.886;2022-10-31T00:15:14;29.10;;;26.40;;
11572;SDS011;5842;52.426;4.886;2022-10-31T00:17:41;26.87;;;24.17;;
11572;SDS011;5842;52.426;4.886;2022-10-31T00:20:09;27.80;;;25.00;;
11572;SDS011;5842;52.426;4.886;2022-10-31T00:22:36;27.33;;;24.40;;
11572;SDS011;5842;52.426;4.886;2022-10-31T00:25:03;21.20;;;19.10;;
11572;SDS011;5842;52.426;4.886;2022-10-31T00:27:31;19.87;;;17.77;;
11572;SDS011;5842;52.426;4.886;2022-10-31T00:29:58;21.23;;;17.47;;
11572;SDS011;5842;52.426;4.886;2022-10-31T00:32:28;14.03;;;12.30;;
11572;SDS011;5842;52.426;4.886;2022-10-31T00:34:55;11.03;;;9.93;;
11572;SDS011;5842;52.426;4.886;2022-10-31T00:37:22;13.40;;;10.00;;
11572;SDS011;5842;52.426;4.886;2022-10-31T00:39:49;12.73;;;8.93;;
11572;SDS011;5842;52.426;4.886;2022-10-31T00:42:16;16.83;;;14.23;;
11572;SDS011;5842;52.426;4.886;2022-10-31T00:44:44;16.73;;;15.07;;
11572;SDS011;5842;52.426;4.886;2022-10-31T00:47:11;17.17;;;15.30;;
11572;SDS011;5842;52.426;4.886;2022-10-31T00:49:42;19.27;;;16.77;;
11572;SDS011;5842;52.426;4.886;2022-10-31T00:52:09;14.93;;;13.03;;
11572;SDS011;5842;52.426;4.886;2022-10-31T00:54:36;16.20;;;13.07;;
11572;SDS011;5842;52.426;4.886;2022-10-31T00:57:04;15.07;;;13.43;;
11572;SDS011;5842;52.426;4.886;2022-10-31T00:59:31;13.27;;;11.47;;
11572;SDS011;5842;52.426;4.886;2022-10-31T01:01:58;13.60;;;9.37;;
11572;SDS011;5842;52.426;4.886;2022-10-31T01:04:25;13.57;;;8.70;;
11572;SDS011;5842;52.426;4.886;2022-10-31T01:06:54;11.83;;;8.40;;
11572;SDS011;5842;52.426;4.886;2022-10-31T01:09:21;11.13;;;7.50;;
11572;SDS011;5842;52.426;4.886;2022-10-31T01:11:48;13.90;;;9.50;;
11572;SDS011;5842;52.426;4.886;2022-10-31T01:14:15;14.70;;;11.80;;
11572;SDS011;5842;52.426;4.886;2022-10-31T01:16:42;15.57;;;11.67;;
11572;SDS011;5842;52.426;4.886;2022-10-31T01:19:09;16.63;;;10.60;;
11572;SDS011;5842;52.426;4.886;2022-10-31T01:21:37;15.50;;;13.23;;
11572;SDS011;5842;52.426;4.886;2022-10-31T01:24:06;16.80;;;14.90;;
11572;SDS011;5842;52.426;4.886;2022-10-31T01:26:34;19.50;;;16.83;;
11572;SDS011;5842;52.426;4.886;2022-10-31T01:29:03;19.50;;;17.07;;
11572;SDS011;5842;52.426;4.886;2022-10-31T01:31:32;19.10;;;16.60;;
11572;SDS011;5842;52.426;4.886;2022-10-31T01:34:00;18.13;;;16.23;;
11572;SDS011;5842;52.426;4.886;2022-10-31T01:36:28;16.97;;;15.07;;
11572;SDS011;5842;52.426;4.886;2022-10-31T01:38:56;17.57;;;15.37;;
11572;SDS011;5842;52.426;4.886;2022-10-31T01:41:28;17.93;;;16.03;;
11572;SDS011;5842;52.426;4.886;2022-10-31T01:43:59;18.70;;;13.77;;
11572;SDS011;5842;52.426;4.886;2022-10-31T01:46:28;12.53;;;11.23;;
11572;SDS011;5842;52.426;4.886;2022-10-31T01:48:57;16.83;;;13.67;;
11572;SDS011;5842;52.426;4.886;2022-10-31T01:51:29;17.83;;;13.80;;
11572;SDS011;5842;52.426;4.886;2022-10-31T01:53:59;13.67;;;11.93;;
11572;SDS011;5842;52.426;4.886;2022-10-31T01:56:31;13.70;;;11.50;;
11572;SDS011;5842;52.426;4.886;2022-10-31T01:59:00;12.60;;;10.20;;
11572;SDS011;5842;52.426;4.886;2022-10-31T02:01:31;15.30;;;11.67;;
11572;SDS011;5842;52.426;4.886;2022-10-31T02:03:58;18.30;;;11.93;;
11572;SDS011;5842;52.426;4.886;2022-10-31T02:06:27;15.73;;;11.40;;
11572;SDS011;5842;52.426;4.886;2022-10-31T02:08:59;16.37;;;11.57;;
11572;SDS011;5842;52.426;4.886;2022-10-31T02:11:28;14.00;;;11.10;;
11572;SDS011;5842;52.426;4.886;2022-10-31T02:13:59;13.63;;;10.90;;
11572;SDS011;5842;52.426;4.886;2022-10-31T02:16:27;19.67;;;15.73;;
11572;SDS011;5842;52.426;4.886;2022-10-31T02:18:55;19.07;;;16.80;;
11572;SDS011;5842;52.426;4.886;2022-10-31T02:21:23;22.50;;;20.10;;
11572;SDS011;5842;52.426;4.886;2022-10-31T02:27:05;21.47;;;18.23;;
11572;SDS011;5842;52.426;4.886;2022-10-31T02:29:43;18.53;;;16.33;;
11572;SDS011;5842;52.426;4.886;2022-10-31T02:32:32;22.53;;;18.97;;
11572;SDS011;5842;52.426;4.886;2022-10-31T02:35:22;17.60;;;15.00;;
11572;SDS011;5842;52.426;4.886;2022-10-31T02:38:09;17.90;;;14.67;;
11572;SDS011;5842;52.426;4.886;2022-10-31T02:40:44;19.27;;;14.63;;
11572;SDS011;5842;52.426;4.886;2022-10-31T02:43:18;19.23;;;15.00;;
11572;SDS011;5842;52.426;4.886;2022-10-31T02:45:48;22.10;;;15.87;;
11572;SDS011;5842;52.426;4.886;2022-10-31T02:48:23;21.70;;;16.10;;
11572;SDS011;5842;52.426;4.886;2022-10-31T02:50:55;18.47;;;13.60;;
11572;SDS011;5842;52.426;4.886;2022-10-31T02:53:25;21.53;;;18.00;;
11572;SDS011;5842;52.426;4.886;2022-10-31T02:55:59;20.27;;;14.67;;
11572;SDS011;5842;52.426;4.886;2022-10-31T02:58:29;18.93;;;13.67;;
11572;SDS011;5842;52.426;4.886;2022-10-31T03:03:56;18.73;;;14.53;;
11572;SDS011;5842;52.426;4.886;2022-10-31T03:06:39;15.63;;;12.60;;
11572;SDS011;5842;52.426;4.886;2022-10-31T03:09:12;15.13;;;12.40;;
11572;SDS011;5842;52.426;4.886;2022-10-31T03:11:49;15.47;;;11.83;;
11572;SDS011;5842;52.426;4.886;2022-10-31T03:14:24;16.70;;;12.80;;
11572;SDS011;5842;52.426;4.886;2022-10-31T03:16:58;17.80;;;13.43;;
11572;SDS011;5842;52.426;4.886;2022-10-31T03:19:30;17.47;;;13.40;;
11572;SDS011;5842;52.426;4.886;2022-10-31T03:22:01;14.53;;;12.10;;
11572;SDS011;5842;52.426;4.886;2022-10-31T03:24:34;18.30;;;13.27;;
11572;SDS011;5842;52.426;4.886;2022-10-31T03:27:05;21.77;;;15.13;;
11572;SDS011;5842;52.426;4.886;2022-10-31T03:29:35;19.73;;;13.60;;
11572;SDS011;5842;52.426;4.886;2022-10-31T03:32:04;19.60;;;13.97;;
11572;SDS011;5842;52.426;4.886;2022-10-31T03:34:36;19.33;;;13.77;;
11572;SDS011;5842;52.426;4.886;2022-10-31T03:37:06;18.23;;;12.83;;
11572;SDS011;5842;52.426;4.886;2022-10-31T03:39:36;18.70;;;13.33;;
11572;SDS011;5842;52.426;4.886;2022-10-31T03:42:11;23.20;;;14.80;;
11572;SDS011;5842;52.426;4.886;2022-10-31T03:44:41;17.73;;;13.83;;
11572;SDS011;5842;52.426;4.886;2022-10-31T03:47:12;19.17;;;13.70;;
11572;SDS011;5842;52.426;4.886;2022-10-31T03:49:41;18.97;;;13.67;;
11572;SDS011;5842;52.426;4.886;2022-10-31T03:52:11;18.50;;;13.07;;
11572;SDS011;5842;52.426;4.886;2022-10-31T03:54:46;19.63;;;14.43;;
11572;SDS011;5842;52.426;4.886;2022-10-31T03:57:19;23.17;;;15.03;;
11572;SDS011;5842;52.426;4.886;2022-10-31T03:59:53;17.63;;;13.80;;
11572;SDS011;5842;52.426;4.886;2022-10-31T04:02:25;22.13;;;15.20;;
11572;SDS011;5842;52.426;4.886;2022-10-31T04:04:57;21.00;;;14.60;;
11572;SDS011;5842;52.426;4.886;2022-10-31T04:07:26;19.77;;;14.13;;
11572;SDS011;5842;52.426;4.886;2022-10-31T04:09:58;19.67;;;14.40;;
11572;SDS011;5842;52.426;4.886;2022-10-31T04:12:28;17.13;;;13.40;;
11572;SDS011;5842;52.426;4.886;2022-10-31T04:14:57;18.47;;;14.23;;
11572;SDS011;5842;52.426;4.886;2022-10-31T04:17:25;17.33;;;13.50;;
11572;SDS011;5842;52.426;4.886;2022-10-31T04:20:00;18.47;;;14.03;;
11572;SDS011;5842;52.426;4.886;2022-10-31T04:22:27;19.83;;;13.97;;
11572;SDS011;5842;52.426;4.886;2022-10-31T04:24:54;20.60;;;13.20;;
11572;SDS011;5842;52.426;4.886;2022-10-31T04:27:21;20.63;;;14.37;;
11572;SDS011;5842;52.426;4.886;2022-10-31T04:29:48;16.67;;;12.80;;
11572;SDS011;5842;52.426;4.886;2022-10-31T04:32:16;16.87;;;12.47;;
11572;SDS011;5842;52.426;4.886;2022-10-31T04:34:43;20.47;;;14.13;;
11572;SDS011;5842;52.426;4.886;2022-10-31T04:37:12;19.50;;;13.57;;
11572;SDS011;5842;52.426;4.886;2022-10-31T04:39:39;22.03;;;15.07;;
11572;SDS011;5842;52.426;4.886;2022-10-31T04:42:08;20.33;;;13.93;;
11572;SDS011;5842;52.426;4.886;2022-10-31T04:44:35;17.97;;;13.57;;
11572;SDS011;5842;52.426;4.886;2022-10-31T04:47:02;19.53;;;13.97;;
11572;SDS011;5842;52.426;4.886;2022-10-31T04:49:30;20.80;;;14.00;;
11572;SDS011;5842;52.426;4.886;2022-10-31T04:51:57;21.73;;;14.80;;
11572;SDS011;5842;52.426;4.886;2022-10-31T04:54:25;20.43;;;14.93;;
11572;SDS011;5842;52.426;4.886;2022-10-31T04:56:53;25.23;;;15.93;;
11572;SDS011;5842;52.426;4.886;2022-10-31T04:59:20;22.57;;;15.50;;
11572;SDS011;5842;52.426;4.886;2022-10-31T05:01:47;23.20;;;16.13;;
11572;SDS011;5842;52.426;4.886;2022-10-31T05:04:14;25.23;;;16.43;;
11572;SDS011;5842;52.426;4.886;2022-10-31T05:06:41;24.53;;;17.30;;
11572;SDS011;5842;52.426;4.886;2022-10-31T05:09:08;22.70;;;16.00;;
11572;SDS011;5842;52.426;4.886;2022-10-31T05:11:37;21.27;;;15.77;;
11572;SDS011;5842;52.426;4.886;2022-10-31T05:14:04;20.67;;;15.03;;
11572;SDS011;5842;52.426;4.886;2022-10-31T05:16:31;20.97;;;14.73;;
11572;SDS011;5842;52.426;4.886;2022-10-31T05:18:58;23.47;;;16.17;;
11572;SDS011;5842;52.426;4.886;2022-10-31T05:21:25;21.13;;;15.23;;
11572;SDS011;5842;52.426;4.886;2022-10-31T05:23:52;21.70;;;15.03;;
11572;SDS011;5842;52.426;4.886;2022-10-31T05:26:20;22.93;;;16.10;;
11572;SDS011;5842;52.426;4.886;2022-10-31T05:28:48;25.63;;;17.03;;
11572;SDS011;5842;52.426;4.886;2022-10-31T05:31:15;25.27;;;16.17;;
11572;SDS011;5842;52.426;4.886;2022-10-31T05:33:42;21.43;;;15.70;;
11572;SDS011;5842;52.426;4.886;2022-10-31T05:36:10;23.90;;;17.00;;
11572;SDS011;5842;52.426;4.886;2022-10-31T05:38:37;27.70;;;18.40;;
11572;SDS011;5842;52.426;4.886;2022-10-31T05:41:04;28.20;;;19.40;;
11572;SDS011;5842;52.426;4.886;2022-10-31T05:43:31;32.97;;;20.23;;
11572;SDS011;5842;52.426;4.886;2022-10-31T05:46:00;40.93;;;24.60;;
11572;SDS011;5842;52.426;4.886;2022-10-31T05:48:27;56.00;;;32.07;;
11572;SDS011;5842;52.426;4.886;2022-10-31T05:50:54;51.50;;;31.00;;
11572;SDS011;5842;52.426;4.886;2022-10-31T05:53:21;47.20;;;28.47;;
11572;SDS011;5842;52.426;4.886;2022-10-31T05:55:48;63.20;;;36.77;;
11572;SDS011;5842;52.426;4.886;2022-10-31T05:58:15;52.53;;;32.57;;
11572;SDS011;5842;52.426;4.886;2022-10-31T06:00:42;55.33;;;32.70;;
11572;SDS011;5842;52.426;4.886;2022-10-31T06:03:11;56.10;;;32.30;;
11572;SDS011;5842;52.426;4.886;2022-10-31T06:05:38;48.40;;;28.80;;
11572;SDS011;5842;52.426;4.886;2022-10-31T06:08:05;44.37;;;27.33;;
11572;SDS011;5842;52.426;4.886;2022-10-31T06:10:33;42.10;;;26.90;;
11572;SDS011;5842;52.426;4.886;2022-10-31T06:13:00;44.93;;;26.40;;
11572;SDS011;5842;52.426;4.886;2022-10-31T06:15:27;40.57;;;26.77;;
11572;SDS011;5842;52.426;4.886;2022-10-31T06:17:57;43.43;;;25.10;;
11572;SDS011;5842;52.426;4.886;2022-10-31T06:20:27;38.83;;;24.50;;
11572;SDS011;5842;52.426;4.886;2022-10-31T06:22:54;38.43;;;24.57;;
11572;SDS011;5842;52.426;4.886;2022-10-31T06:25:24;41.53;;;24.90;;
11572;SDS011;5842;52.426;4.886;2022-10-31T06:27:52;36.50;;;23.47;;
11572;SDS011;5842;52.426;4.886;2022-10-31T06:30:19;34.17;;;22.40;;
11572;SDS011;5842;52.426;4.886;2022-10-31T06:32:46;37.33;;;23.23;;
11572;SDS011;5842;52.426;4.886;2022-10-31T06:35:14;41.17;;;24.03;;
11572;SDS011;5842;52.426;4.886;2022-10-31T06:37:43;35.57;;;23.17;;
11572;SDS011;5842;52.426;4.886;2022-10-31T06:40:17;36.97;;;23.57;;
11572;SDS011;5842;52.426;4.886;2022-10-31T06:42:44;36.33;;;23.13;;
11572;SDS011;5842;52.426;4.886;2022-10-31T06:45:12;37.73;;;22.70;;
11572;SDS011;5842;52.426;4.886;2022-10-31T06:47:39;40.17;;;25.63;;
11572;SDS011;5842;52.426;4.886;2022-10-31T06:50:07;46.63;;;26.80;;
11572;SDS011;5842;52.426;4.886;2022-10-31T06:52:34;45.77;;;24.90;;
11572;SDS011;5842;52.426;4.886;2022-10-31T06:55:04;42.80;;;25.70;;
11572;SDS011;5842;52.426;4.886;2022-10-31T06:57:31;42.10;;;24.73;;
11572;SDS011;5842;52.426;4.886;2022-10-31T06:59:58;54.07;;;30.07;;
11572;SDS011;5842;52.426;4.886;2022-10-31T07:02:25;56.23;;;33.03;;
11572;SDS011;5842;52.426;4.886;2022-10-31T07:04:52;57.60;;;33.37;;
11572;SDS011;5842;52.426;4.886;2022-10-31T07:07:19;61.67;;;34.70;;
11572;SDS011;5842;52.426;4.886;2022-10-31T07:09:46;70.53;;;37.80;;
11572;SDS011;5842;52.426;4.886;2022-10-31T07:12:16;62.83;;;34.27;;
11572;SDS011;5842;52.426;4.886;2022-10-31T07:14:43;63.03;;;35.53;;
11572;SDS011;5842;52.426;4.886;2022-10-31T07:17:10;64.20;;;35.70;;
11572;SDS011;5842;52.426;4.886;2022-10-31T07:19:37;76.00;;;39.97;;
11572;SDS011;5842;52.426;4.886;2022-10-31T07:38:26;105.65;;;57.65;;
11572;SDS011;5842;52.426;4.886;2022-10-31T07:40:53;94.40;;;47.57;;
11572;SDS011;5842;52.426;4.886;2022-10-31T07:43:20;70.10;;;39.33;;
11572;SDS011;5842;52.426;4.886;2022-10-31T07:45:54;92.73;;;47.20;;
11572;SDS011;5842;52.426;4.886;2022-10-31T07:48:21;83.83;;;43.57;;
11572;SDS011;5842;52.426;4.886;2022-10-31T07:50:48;89.93;;;48.23;;
11572;SDS011;5842;52.426;4.886;2022-10-31T07:53:15;89.20;;;45.77;;
11572;SDS011;5842;52.426;4.886;2022-10-31T07:55:44;82.40;;;44.90;;
11572;SDS011;5842;52.426;4.886;2022-10-31T07:58:13;78.37;;;44.27;;
11572;SDS011;5842;52.426;4.886;2022-10-31T08:00:42;79.97;;;45.53;;
11572;SDS011;5842;52.426;4.886;2022-10-31T08:03:12;79.13;;;43.03;;
11572;SDS011;5842;52.426;4.886;2022-10-31T08:05:40;79.57;;;43.87;;
11572;SDS011;5842;52.426;4.886;2022-10-31T08:08:09;75.27;;;43.33;;
11572;SDS011;5842;52.426;4.886;2022-10-31T08:10:37;75.77;;;41.63;;
11572;SDS011;5842;52.426;4.886;2022-10-31T08:13:07;75.80;;;42.50;;
11572;SDS011;5842;52.426;4.886;2022-10-31T08:15:38;67.43;;;41.13;;
11572;SDS011;5842;52.426;4.886;2022-10-31T08:18:06;73.20;;;42.03;;
11572;SDS011;5842;52.426;4.886;2022-10-31T08:20:40;74.67;;;44.40;;
11572;SDS011;5842;52.426;4.886;2022-10-31T08:23:08;74.57;;;45.10;;
11572;SDS011;5842;52.426;4.886;2022-10-31T08:25:36;50.37;;;32.40;;
11572;SDS011;5842;52.426;4.886;2022-10-31T08:28:04;34.07;;;24.47;;
11572;SDS011;5842;52.426;4.886;2022-10-31T08:30:34;24.57;;;18.30;;
11572;SDS011;5842;52.426;4.886;2022-10-31T08:33:02;20.17;;;15.57;;
11572;SDS011;5842;52.426;4.886;2022-10-31T08:35:31;19.73;;;14.77;;
11572;SDS011;5842;52.426;4.886;2022-10-31T08:37:58;20.93;;;14.53;;
11572;SDS011;5842;52.426;4.886;2022-10-31T08:40:26;20.97;;;13.80;;
11572;SDS011;5842;52.426;4.886;2022-10-31T08:45:29;20.38;;;14.05;;
11572;SDS011;5842;52.426;4.886;2022-10-31T08:47:57;18.90;;;14.00;;
11572;SDS011;5842;52.426;4.886;2022-10-31T08:50:25;21.37;;;14.20;;
11572;SDS011;5842;52.426;4.886;2022-10-31T08:52:53;18.43;;;14.63;;
11572;SDS011;5842;52.426;4.886;2022-10-31T08:55:20;20.07;;;14.93;;
11572;SDS011;5842;52.426;4.886;2022-10-31T08:57:47;25.20;;;14.83;;
11572;SDS011;5842;52.426;4.886;2022-10-31T09:00:14;19.40;;;14.23;;
11572;SDS011;5842;52.426;4.886;2022-10-31T09:02:44;20.40;;;14.77;;
11572;SDS011;5842;52.426;4.886;2022-10-31T09:05:11;18.87;;;14.73;;
11572;SDS011;5842;52.426;4.886;2022-10-31T09:07:38;19.73;;;15.03;;
11572;SDS011;5842;52.426;4.886;2022-10-31T09:10:05;19.40;;;14.00;;
11572;SDS011;5842;52.426;4.886;2022-10-31T09:12:33;18.50;;;14.37;;
11572;SDS011;5842;52.426;4.886;2022-10-31T09:15:00;21.03;;;14.50;;
11572;SDS011;5842;52.426;4.886;2022-10-31T09:17:27;20.00;;;14.57;;
11572;SDS011;5842;52.426;4.886;2022-10-31T09:19:56;20.97;;;14.23;;
11572;SDS011;5842;52.426;4.886;2022-10-31T09:22:23;20.33;;;13.93;;
11572;SDS011;5842;52.426;4.886;2022-10-31T09:24:51;19.03;;;13.93;;
11572;SDS011;5842;52.426;4.886;2022-10-31T09:27:18;19.10;;;14.57;;
11572;SDS011;5842;52.426;4.886;2022-10-31T09:29:45;19.13;;;14.90;;
11572;SDS011;5842;52.426;4.886;2022-10-31T09:32:12;18.70;;;14.50;;
11572;SDS011;5842;52.426;4.886;2022-10-31T09:34:42;22.17;;;14.97;;
11572;SDS011;5842;52.426;4.886;2022-10-31T09:37:10;20.53;;;14.47;;
11572;SDS011;5842;52.426;4.886;2022-10-31T09:39:37;21.30;;;14.27;;
11572;SDS011;5842;52.426;4.886;2022-10-31T09:42:08;20.67;;;14.10;;
11572;SDS011;5842;52.426;4.886;2022-10-31T09:44:49;16.40;;;12.17;;
11572;SDS011;5842;52.426;4.886;2022-10-31T09:47:22;16.10;;;12.30;;
11572;SDS011;5842;52.426;4.886;2022-10-31T09:50:01;18.63;;;12.07;;
11572;SDS011;5842;52.426;4.886;2022-10-31T09:52:39;19.47;;;12.63;;
11572;SDS011;5842;52.426;4.886;2022-10-31T09:55:23;19.40;;;13.17;;
11572;SDS011;5842;52.426;4.886;2022-10-31T09:57:54;18.17;;;13.57;;
11572;SDS011;5842;52.426;4.886;2022-10-31T10:00:22;19.60;;;13.80;;
11572;SDS011;5842;52.426;4.886;2022-10-31T10:02:50;20.17;;;13.67;;
11572;SDS011;5842;52.426;4.886;2022-10-31T10:05:22;20.10;;;14.13;;
11572;SDS011;5842;52.426;4.886;2022-10-31T10:07:58;21.77;;;14.37;;
11572;SDS011;5842;52.426;4.886;2022-10-31T10:10:30;22.13;;;15.40;;
11572;SDS011;5842;52.426;4.886;2022-10-31T10:13:12;23.80;;;15.17;;
11572;SDS011;5842;52.426;4.886;2022-10-31T10:16:00;21.57;;;15.03;;
11572;SDS011;5842;52.426;4.886;2022-10-31T10:18:37;21.63;;;15.43;;
11572;SDS011;5842;52.426;4.886;2022-10-31T10:21:14;22.10;;;15.53;;
11572;SDS011;5842;52.426;4.886;2022-10-31T10:23:54;25.67;;;17.33;;
11572;SDS011;5842;52.426;4.886;2022-10-31T10:26:29;25.10;;;16.90;;
11572;SDS011;5842;52.426;4.886;2022-10-31T10:29:08;24.03;;;16.43;;
11572;SDS011;5842;52.426;4.886;2022-10-31T10:31:46;27.10;;;17.57;;
11572;SDS011;5842;52.426;4.886;2022-10-31T10:34:17;25.23;;;17.43;;
11572;SDS011;5842;52.426;4.886;2022-10-31T10:36:48;28.23;;;18.50;;
11572;SDS011;5842;52.426;4.886;2022-10-31T10:39:22;27.63;;;18.20;;
11572;SDS011;5842;52.426;4.886;2022-10-31T10:41:54;21.80;;;15.77;;
11572;SDS011;5842;52.426;4.886;2022-10-31T10:44:42;24.10;;;16.53;;
11572;SDS011;5842;52.426;4.886;2022-10-31T10:47:31;24.67;;;16.97;;
11572;SDS011;5842;52.426;4.886;2022-10-31T10:50:06;25.47;;;17.33;;
11572;SDS011;5842;52.426;4.886;2022-10-31T10:52:39;23.87;;;16.30;;
11572;SDS011;5842;52.426;4.886;2022-10-31T10:55:16;25.17;;;16.57;;
11572;SDS011;5842;52.426;4.886;2022-10-31T10:57:54;21.20;;;15.00;;
11572;SDS011;5842;52.426;4.886;2022-10-31T11:00:23;19.33;;;13.40;;
11572;SDS011;5842;52.426;4.886;2022-10-31T11:02:52;17.60;;;12.97;;
11572;SDS011;5842;52.426;4.886;2022-10-31T11:05:23;21.50;;;14.33;;
11572;SDS011;5842;52.426;4.886;2022-10-31T11:07:52;20.70;;;13.53;;
11572;SDS011;5842;52.426;4.886;2022-10-31T11:10:20;18.33;;;13.10;;
11572;SDS011;5842;52.426;4.886;2022-10-31T11:12:58;16.60;;;11.40;;
11572;SDS011;5842;52.426;4.886;2022-10-31T11:15:28;15.87;;;10.63;;
11572;SDS011;5842;52.426;4.886;2022-10-31T11:17:58;14.20;;;10.27;;
11572;SDS011;5842;52.426;4.886;2022-10-31T11:20:27;14.00;;;10.03;;
11572;SDS011;5842;52.426;4.886;2022-10-31T11:23:04;15.97;;;9.90;;
11572;SDS011;5842;52.426;4.886;2022-10-31T11:25:49;14.50;;;9.73;;
11572;SDS011;5842;52.426;4.886;2022-10-31T11:28:17;13.53;;;8.40;;
11572;SDS011;5842;52.426;4.886;2022-10-31T11:30:48;12.23;;;7.70;;
11572;SDS011;5842;52.426;4.886;2022-10-31T11:33:19;9.83;;;6.17;;
11572;SDS011;5842;52.426;4.886;2022-10-31T11:35:51;9.13;;;6.17;;
11572;SDS011;5842;52.426;4.886;2022-10-31T11:38:20;9.67;;;6.20;;
11572;SDS011;5842;52.426;4.886;2022-10-31T11:40:56;10.23;;;6.17;;
11572;SDS011;5842;52.426;4.886;2022-10-31T11:43:26;11.93;;;6.70;;
11572;SDS011;5842;52.426;4.886;2022-10-31T11:45:53;9.80;;;6.10;;
11572;SDS011;5842;52.426;4.886;2022-10-31T11:48:21;9.73;;;6.40;;
11572;SDS011;5842;52.426;4.886;2022-10-31T11:50:52;9.13;;;6.70;;
11572;SDS011;5842;52.426;4.886;2022-10-31T11:53:24;11.20;;;7.80;;
11572;SDS011;5842;52.426;4.886;2022-10-31T11:56:03;12.57;;;7.63;;
11572;SDS011;5842;52.426;4.886;2022-10-31T11:58:32;12.37;;;7.77;;
11572;SDS011;5842;52.426;4.886;2022-10-31T12:00:59;11.13;;;7.50;;
11572;SDS011;5842;52.426;4.886;2022-10-31T12:03:29;12.63;;;7.63;;
11572;SDS011;5842;52.426;4.886;2022-10-31T12:06:04;11.30;;;7.83;;
11572;SDS011;5842;52.426;4.886;2022-10-31T12:08:36;12.03;;;7.93;;
11572;SDS011;5842;52.426;4.886;2022-10-31T12:11:08;14.53;;;9.10;;
11572;SDS011;5842;52.426;4.886;2022-10-31T12:13:47;12.43;;;7.63;;
11572;SDS011;5842;52.426;4.886;2022-10-31T12:16:22;13.77;;;9.43;;
11572;SDS011;5842;52.426;4.886;2022-10-31T12:18:57;15.67;;;8.90;;
11572;SDS011;5842;52.426;4.886;2022-10-31T12:24:22;15.03;;;9.67;;
11572;SDS011;5842;52.426;4.886;2022-10-31T12:27:02;14.97;;;9.93;;
11572;SDS011;5842;52.426;4.886;2022-10-31T12:29:42;15.83;;;10.47;;
11572;SDS011;5842;52.426;4.886;2022-10-31T12:32:21;18.00;;;9.93;;
11572;SDS011;5842;52.426;4.886;2022-10-31T12:35:09;15.60;;;9.80;;
11572;SDS011;5842;52.426;4.886;2022-10-31T12:37:59;17.67;;;11.20;;
11572;SDS011;5842;52.426;4.886;2022-10-31T12:43:52;17.90;;;12.20;;
11572;SDS011;5842;52.426;4.886;2022-10-31T12:46:25;19.87;;;12.90;;
11572;SDS011;5842;52.426;4.886;2022-10-31T12:49:11;21.47;;;14.40;;
11572;SDS011;5842;52.426;4.886;2022-10-31T12:51:50;24.90;;;15.37;;
11572;SDS011;5842;52.426;4.886;2022-10-31T12:57:22;29.03;;;17.60;;
11572;SDS011;5842;52.426;4.886;2022-10-31T12:59:57;29.07;;;17.23;;
11572;SDS011;5842;52.426;4.886;2022-10-31T13:02:27;25.37;;;15.97;;
11572;SDS011;5842;52.426;4.886;2022-10-31T13:04:58;24.27;;;16.33;;
11572;SDS011;5842;52.426;4.886;2022-10-31T13:07:29;25.87;;;16.90;;
11572;SDS011;5842;52.426;4.886;2022-10-31T13:10:00;23.37;;;15.97;;
11572;SDS011;5842;52.426;4.886;2022-10-31T13:12:32;23.83;;;15.40;;
11572;SDS011;5842;52.426;4.886;2022-10-31T13:15:03;21.53;;;14.70;;
11572;SDS011;5842;52.426;4.886;2022-10-31T13:17:38;26.77;;;16.83;;
11572;SDS011;5842;52.426;4.886;2022-10-31T13:20:13;26.70;;;17.90;;
11572;SDS011;5842;52.426;4.886;2022-10-31T13:22:46;33.77;;;21.17;;
11572;SDS011;5842;52.426;4.886;2022-10-31T13:25:18;33.37;;;20.20;;
11572;SDS011;5842;52.426;4.886;2022-10-31T13:27:51;29.57;;;19.80;;
11572;SDS011;5842;52.426;4.886;2022-10-31T13:30:23;29.07;;;19.63;;
11572;SDS011;5842;52.426;4.886;2022-10-31T13:32:54;31.80;;;19.73;;
11572;SDS011;5842;52.426;4.886;2022-10-31T13:35:36;32.00;;;19.20;;
11572;SDS011;5842;52.426;4.886;2022-10-31T13:38:10;28.23;;;19.07;;
11572;SDS011;5842;52.426;4.886;2022-10-31T13:40:45;31.27;;;19.27;;
11572;SDS011;5842;52.426;4.886;2022-10-31T13:43:22;27.40;;;17.47;;
11572;SDS011;5842;52.426;4.886;2022-10-31T13:45:56;29.13;;;18.20;;
11572;SDS011;5842;52.426;4.886;2022-10-31T13:48:34;26.83;;;16.53;;
11572;SDS011;5842;52.426;4.886;2022-10-31T13:51:05;23.27;;;16.20;;
11572;SDS011;5842;52.426;4.886;2022-10-31T13:53:37;23.50;;;17.00;;
11572;SDS011;5842;52.426;4.886;2022-10-31T13:56:17;24.60;;;16.60;;
11572;SDS011;5842;52.426;4.886;2022-10-31T13:58:57;26.77;;;16.70;;
11572;SDS011;5842;52.426;4.886;2022-10-31T14:01:32;25.53;;;16.33;;
11572;SDS011;5842;52.426;4.886;2022-10-31T14:04:02;26.67;;;16.47;;
11572;SDS011;5842;52.426;4.886;2022-10-31T14:06:34;26.17;;;16.47;;
11572;SDS011;5842;52.426;4.886;2022-10-31T14:09:05;25.17;;;16.77;;
11572;SDS011;5842;52.426;4.886;2022-10-31T14:11:44;28.07;;;17.17;;
11572;SDS011;5842;52.426;4.886;2022-10-31T14:14:13;27.37;;;18.03;;
11572;SDS011;5842;52.426;4.886;2022-10-31T14:16:44;25.00;;;17.03;;
11572;SDS011;5842;52.426;4.886;2022-10-31T14:19:16;29.07;;;17.47;;
11572;SDS011;5842;52.426;4.886;2022-10-31T14:21:46;28.13;;;18.63;;
11572;SDS011;5842;52.426;4.886;2022-10-31T14:24:14;29.80;;;18.07;;
11572;SDS011;5842;52.426;4.886;2022-10-31T14:26:57;25.80;;;16.23;;
11572;SDS011;5842;52.426;4.886;2022-10-31T14:29:26;26.80;;;17.70;;
11572;SDS011;5842;52.426;4.886;2022-10-31T14:32:01;29.30;;;17.90;;
11572;SDS011;5842;52.426;4.886;2022-10-31T14:34:36;28.93;;;18.00;;
11572;SDS011;5842;52.426;4.886;2022-10-31T14:40:11;28.67;;;18.40;;
11572;SDS011;5842;52.426;4.886;2022-10-31T14:42:57;32.60;;;18.83;;
11572;SDS011;5842;52.426;4.886;2022-10-31T14:45:39;28.97;;;18.17;;
11572;SDS011;5842;52.426;4.886;2022-10-31T14:48:19;30.17;;;17.63;;
11572;SDS011;5842;52.426;4.886;2022-10-31T14:51:00;35.33;;;20.53;;
11572;SDS011;5842;52.426;4.886;2022-10-31T14:53:30;27.87;;;17.93;;
11572;SDS011;5842;52.426;4.886;2022-10-31T14:55:59;30.23;;;18.03;;
11572;SDS011;5842;52.426;4.886;2022-10-31T14:58:33;33.57;;;20.53;;
11572;SDS011;5842;52.426;4.886;2022-10-31T15:01:06;38.77;;;20.20;;
11572;SDS011;5842;52.426;4.886;2022-10-31T15:03:36;33.83;;;19.33;;
11572;SDS011;5842;52.426;4.886;2022-10-31T15:06:12;31.60;;;19.03;;
11572;SDS011;5842;52.426;4.886;2022-10-31T15:08:43;31.27;;;19.37;;
11572;SDS011;5842;52.426;4.886;2022-10-31T15:11:16;30.53;;;18.67;;
11572;SDS011;5842;52.426;4.886;2022-10-31T15:13:45;32.90;;;18.07;;
11572;SDS011;5842;52.426;4.886;2022-10-31T15:16:14;33.73;;;18.07;;
11572;SDS011;5842;52.426;4.886;2022-10-31T15:18:51;29.30;;;17.23;;
11572;SDS011;5842;52.426;4.886;2022-10-31T15:21:23;32.10;;;18.43;;
11572;SDS011;5842;52.426;4.886;2022-10-31T15:23:53;33.27;;;19.20;;
11572;SDS011;5842;52.426;4.886;2022-10-31T15:26:25;31.37;;;18.70;;
11572;SDS011;5842;52.426;4.886;2022-10-31T15:28:59;35.47;;;19.77;;
11572;SDS011;5842;52.426;4.886;2022-10-31T15:31:29;36.93;;;20.27;;
11572;SDS011;5842;52.426;4.886;2022-10-31T15:34:00;31.57;;;17.83;;